createdAt,value
2023-05-19T00:00:31.257Z,8.90
2023-05-19T00:02:58.584Z,8.90
2023-05-19T00:05:25.644Z,8.90
2023-05-19T00:07:54.279Z,8.90
2023-05-19T00:10:21.628Z,8.90
2023-05-19T00:12:49.281Z,8.90
2023-05-19T00:15:16.684Z,8.90
2023-05-19T00:17:43.506Z,8.90
2023-05-19T00:20:12.105Z,8.80
2023-05-19T00:22:39.117Z,8.80
2023-05-19T00:25:06.951Z,8.80
2023-05-19T00:27:34.002Z,8.80
2023-05-19T00:30:01.062Z,8.70
2023-05-19T00:32:27.821Z,8.70
2023-05-19T00:34:54.945Z,8.60
2023-05-19T00:37:21.949Z,8.60
2023-05-19T00:39:48.911Z,8.50
2023-05-19T00:42:16.106Z,8.50
2023-05-19T00:44:43.196Z,8.50
2023-05-19T00:47:10.247Z,8.40
2023-05-19T00:49:37.025Z,8.40
2023-05-19T00:52:06.986Z,8.40
2023-05-19T00:54:36.938Z,8.30
2023-05-19T00:57:04.598Z,8.30
2023-05-19T00:59:31.418Z,8.20
2023-05-19T01:01:58.697Z,8.20
2023-05-19T01:04:26.622Z,8.20
2023-05-19T01:06:55.246Z,8.20
2023-05-19T01:09:23.004Z,8.20
2023-05-19T01:11:53.672Z,8.20
2023-05-19T01:14:21.473Z,8.10
2023-05-19T01:17:05.622Z,8.00
2023-05-19T01:19:55.092Z,7.90
2023-05-19T01:22:55.289Z,7.80
2023-05-19T01:25:58.230Z,7.70
2023-05-19T01:29:06.099Z,7.70
2023-05-19T01:31:34.390Z,7.60
2023-05-19T01:34:02.217Z,7.60
2023-05-19T01:36:30.191Z,7.60
2023-05-19T01:38:58.584Z,7.70
2023-05-19T01:41:26.655Z,7.70
2023-05-19T01:43:54.552Z,7.70
2023-05-19T01:46:21.932Z,7.70
2023-05-19T01:48:49.140Z,7.80
2023-05-19T01:51:16.102Z,7.80
2023-05-19T01:53:43.227Z,7.80
2023-05-19T01:56:10.402Z,7.80
2023-05-19T01:58:50.011Z,7.80
2023-05-19T02:01:19.512Z,7.80
2023-05-19T02:04:32.664Z,7.80
2023-05-19T02:07:28.975Z,7.80
2023-05-19T02:10:09.115Z,7.70
2023-05-19T02:12:38.450Z,7.60
2023-05-19T02:15:34.097Z,7.60
2023-05-19T02:18:04.625Z,7.50
2023-05-19T02:20:32.341Z,7.50
2023-05-19T02:22:59.298Z,7.40
2023-05-19T02:25:26.548Z,7.40
2023-05-19T02:27:54.594Z,7.30
2023-05-19T02:30:21.389Z,7.30
2023-05-19T02:32:48.224Z,7.40
2023-05-19T02:35:15.288Z,7.30
2023-05-19T02:37:42.061Z,7.40
2023-05-19T02:40:09.632Z,7.40
2023-05-19T02:42:36.485Z,7.40
2023-05-19T02:45:05.302Z,7.50
2023-05-19T02:47:33.183Z,7.50
2023-05-19T02:50:00.863Z,7.50
2023-05-19T02:52:28.004Z,7.50
2023-05-19T02:54:54.784Z,7.50
2023-05-19T02:57:22.056Z,7.50
2023-05-19T02:59:48.832Z,7.50
2023-05-19T03:02:16.027Z,7.60
2023-05-19T03:04:43.162Z,7.60
2023-05-19T03:07:10.766Z,7.70
2023-05-19T03:09:37.946Z,7.70
2023-05-19T03:12:06.864Z,7.70
2023-05-19T03:14:34.715Z,7.70
2023-05-19T03:17:02.074Z,7.80
2023-05-19T03:19:29.165Z,7.80
2023-05-19T03:21:56.742Z,7.80
2023-05-19T03:24:23.513Z,7.90
2023-05-19T03:26:50.697Z,7.90
2023-05-19T03:29:17.725Z,7.90
2023-05-19T03:31:44.478Z,7.90
2023-05-19T03:34:11.292Z,7.90
2023-05-19T03:36:39.738Z,8.00
2023-05-19T03:39:07.176Z,8.00
2023-05-19T03:41:34.213Z,8.00
2023-05-19T03:44:01.820Z,8.00
2023-05-19T03:46:28.598Z,8.10
2023-05-19T03:48:55.471Z,8.10
2023-05-19T03:51:22.455Z,8.10
2023-05-19T03:53:49.222Z,8.10
2023-05-19T03:56:18.377Z,8.10
2023-05-19T03:58:46.977Z,8.20
2023-05-19T04:01:13.761Z,8.20
2023-05-19T04:03:41.060Z,8.20
2023-05-19T04:06:08.307Z,8.20
2023-05-19T04:08:35.048Z,8.20
2023-05-19T04:11:01.893Z,8.20
2023-05-19T04:13:28.685Z,8.20
2023-05-19T04:15:56.317Z,8.30
2023-05-19T04:18:23.111Z,8.30
2023-05-19T04:20:50.122Z,8.30
2023-05-19T04:23:16.927Z,8.40
2023-05-19T04:25:43.914Z,8.40
2023-05-19T04:28:10.897Z,8.50
2023-05-19T04:30:38.952Z,8.60
2023-05-19T04:33:05.843Z,8.70
2023-05-19T04:35:33.060Z,8.70
2023-05-19T04:38:00.312Z,8.80
2023-05-19T04:40:27.675Z,8.90
2023-05-19T04:42:54.385Z,8.90
2023-05-19T04:45:21.370Z,9.00
2023-05-19T04:47:48.589Z,9.00
2023-05-19T04:50:17.231Z,9.10
2023-05-19T04:52:45.666Z,9.20
2023-05-19T04:55:13.535Z,9.30
2023-05-19T04:57:40.361Z,9.30
2023-05-19T05:00:09.465Z,9.40
2023-05-19T05:02:37.370Z,9.50
2023-05-19T05:05:04.462Z,9.50
2023-05-19T05:07:32.491Z,9.60
2023-05-19T05:09:59.772Z,9.50
2023-05-19T05:12:26.798Z,9.50
2023-05-19T05:14:54.021Z,9.50
2023-05-19T05:17:21.587Z,9.60
2023-05-19T05:19:48.624Z,9.60
2023-05-19T05:22:16.172Z,9.70
2023-05-19T05:24:43.126Z,9.80
2023-05-19T05:27:10.307Z,9.80
2023-05-19T05:29:37.562Z,9.70
2023-05-19T05:32:04.532Z,9.80
2023-05-19T05:34:31.957Z,9.90
2023-05-19T05:36:58.952Z,10.10
2023-05-19T05:39:25.693Z,10.30
2023-05-19T05:41:52.474Z,10.50
2023-05-19T05:44:19.215Z,10.50
2023-05-19T05:46:46.206Z,10.80
2023-05-19T05:49:13.815Z,11.00
2023-05-19T05:51:42.898Z,11.20
2023-05-19T05:54:12.790Z,11.30
2023-05-19T05:56:41.428Z,11.30
2023-05-19T05:59:08.214Z,11.20
2023-05-19T06:01:36.539Z,11.30
2023-05-19T06:04:03.547Z,11.40
2023-05-19T06:06:31.374Z,11.20
2023-05-19T06:08:58.465Z,11.10
2023-05-19T06:11:25.220Z,11.30
2023-05-19T06:13:52.199Z,11.60
2023-05-19T06:16:19.236Z,12.40
2023-05-19T06:18:46.037Z,13.70
2023-05-19T06:21:13.566Z,14.60
2023-05-19T06:23:41.359Z,15.10
2023-05-19T06:26:08.136Z,15.90
2023-05-19T06:28:34.928Z,16.30
2023-05-19T06:31:01.794Z,16.60
2023-05-19T06:33:29.277Z,16.70
2023-05-19T06:35:56.436Z,16.40
2023-05-19T06:38:23.212Z,16.90
2023-05-19T06:40:50.177Z,17.70
2023-05-19T06:43:17.260Z,18.30
2023-05-19T06:45:43.994Z,18.30
2023-05-19T06:48:10.842Z,18.40
2023-05-19T06:50:37.680Z,18.60
2023-05-19T06:53:04.795Z,19.20
2023-05-19T06:55:32.188Z,20.20
2023-05-19T06:57:59.233Z,20.90
2023-05-19T07:00:26.001Z,20.10
2023-05-19T07:02:53.163Z,20.90
2023-05-19T07:05:20.134Z,21.30
2023-05-19T07:07:46.891Z,22.30
2023-05-19T07:10:13.889Z,23.10
2023-05-19T07:12:40.797Z,23.00
2023-05-19T07:15:07.738Z,22.60
2023-05-19T07:17:34.713Z,22.80
2023-05-19T07:20:01.681Z,23.60
2023-05-19T07:22:28.468Z,23.80
2023-05-19T07:24:57.349Z,23.40
2023-05-19T07:27:24.490Z,23.80
2023-05-19T07:29:51.240Z,24.00
2023-05-19T07:32:18.474Z,24.60
2023-05-19T07:34:45.356Z,24.80
2023-05-19T07:37:12.177Z,24.20
2023-05-19T07:39:38.938Z,24.60
2023-05-19T07:42:05.809Z,23.70
2023-05-19T07:44:32.633Z,23.80
2023-05-19T07:46:59.703Z,24.70
2023-05-19T07:49:26.685Z,23.40
2023-05-19T07:51:54.132Z,22.40
2023-05-19T07:54:21.635Z,22.20
2023-05-19T07:56:48.437Z,22.60
2023-05-19T07:59:16.047Z,22.90
2023-05-19T08:01:43.029Z,24.00
2023-05-19T08:04:13.201Z,24.20
2023-05-19T08:06:42.701Z,24.70
2023-05-19T08:09:09.913Z,26.00
2023-05-19T08:11:37.952Z,26.50
2023-05-19T08:14:04.833Z,24.60
2023-05-19T08:16:31.733Z,22.70
2023-05-19T08:19:48.609Z,21.90
2023-05-19T08:22:15.754Z,21.80
2023-05-19T08:24:43.354Z,22.50
2023-05-19T08:27:10.205Z,21.90
2023-05-19T08:29:38.255Z,22.20
2023-05-19T08:32:05.731Z,24.10
2023-05-19T08:34:32.896Z,23.40
2023-05-19T08:37:00.097Z,24.60
2023-05-19T08:39:27.637Z,24.40
2023-05-19T08:41:54.756Z,24.80
2023-05-19T08:44:22.037Z,25.80
2023-05-19T08:46:50.153Z,25.80
2023-05-19T08:49:24.900Z,25.80
2023-05-19T08:52:33.083Z,25.60
2023-05-19T08:55:09.711Z,25.50
2023-05-19T08:57:38.366Z,23.70
2023-05-19T09:00:10.177Z,23.10
2023-05-19T09:02:50.343Z,24.50
2023-05-19T09:05:26.287Z,25.60
2023-05-19T09:07:52.996Z,27.20
2023-05-19T09:10:19.858Z,28.00
2023-05-19T09:12:47.851Z,29.40
2023-05-19T09:15:19.083Z,27.80
2023-05-19T09:17:49.127Z,27.10
2023-05-19T09:20:20.456Z,28.40
2023-05-19T09:22:50.687Z,29.50
2023-05-19T09:25:24.228Z,30.20
2023-05-19T09:27:51.475Z,29.70
2023-05-19T09:30:18.514Z,29.40
2023-05-19T09:33:04.584Z,29.80
2023-05-19T09:35:31.531Z,28.00
2023-05-19T09:37:58.896Z,25.70
2023-05-19T09:40:28.450Z,25.00
2023-05-19T09:42:55.535Z,25.10
2023-05-19T09:45:22.270Z,24.20
2023-05-19T09:47:49.445Z,23.40
2023-05-19T09:50:17.005Z,23.20
2023-05-19T09:52:44.834Z,22.70
2023-05-19T09:55:13.179Z,22.80
2023-05-19T09:57:40.781Z,23.00
2023-05-19T10:00:14.672Z,22.90
2023-05-19T10:02:44.066Z,22.60
2023-05-19T10:05:13.504Z,22.90
2023-05-19T10:07:41.037Z,23.40
2023-05-19T10:10:14.174Z,23.70
2023-05-19T10:12:42.010Z,25.10
2023-05-19T10:15:13.804Z,26.60
2023-05-19T10:17:42.274Z,27.70
2023-05-19T10:20:14.346Z,28.00
2023-05-19T10:22:46.164Z,27.90
2023-05-19T10:25:18.594Z,26.40
2023-05-19T10:27:57.779Z,25.60
2023-05-19T10:30:31.187Z,26.60
2023-05-19T10:33:17.496Z,26.10
2023-05-19T10:39:37.857Z,26.90
2023-05-19T10:42:23.491Z,26.70
2023-05-19T10:45:05.583Z,26.90
2023-05-19T10:47:33.914Z,27.00
2023-05-19T10:50:06.811Z,25.70
2023-05-19T10:52:37.873Z,24.50
2023-05-19T10:55:08.703Z,24.00
2023-05-19T10:57:35.617Z,24.00
2023-05-19T11:00:25.695Z,24.00
2023-05-19T11:02:56.433Z,25.40
2023-05-19T11:05:29.617Z,27.50
2023-05-19T11:08:04.629Z,25.70
2023-05-19T11:10:32.150Z,25.90
2023-05-19T11:12:59.211Z,25.70
2023-05-19T11:15:30.450Z,27.00
2023-05-19T11:17:57.694Z,28.10
2023-05-19T11:20:27.143Z,28.50
2023-05-19T11:23:04.826Z,28.10
2023-05-19T11:25:46.923Z,29.30
2023-05-19T11:28:20.137Z,29.90
2023-05-19T11:30:52.020Z,29.50
2023-05-19T11:33:21.161Z,29.10
2023-05-19T11:35:50.365Z,27.90
2023-05-19T11:38:19.018Z,27.40
2023-05-19T11:40:47.651Z,27.80
2023-05-19T11:43:14.464Z,27.60
2023-05-19T11:45:41.592Z,26.10
2023-05-19T11:48:12.598Z,24.20
2023-05-19T11:50:42.100Z,23.70
2023-05-19T11:53:13.389Z,22.70
2023-05-19T11:55:47.701Z,22.00
2023-05-19T11:58:15.426Z,23.20
2023-05-19T12:00:46.364Z,23.70
2023-05-19T12:03:13.713Z,23.60
2023-05-19T12:05:46.846Z,24.30
2023-05-19T12:08:14.383Z,25.30
2023-05-19T12:10:41.747Z,26.90
2023-05-19T12:13:09.966Z,27.40
2023-05-19T12:15:37.719Z,27.30
2023-05-19T12:18:05.021Z,26.50
2023-05-19T12:20:32.733Z,26.50
2023-05-19T12:23:00.854Z,26.00
2023-05-19T12:25:32.712Z,26.30
2023-05-19T12:28:02.956Z,26.40
2023-05-19T12:30:31.684Z,25.60
2023-05-19T12:32:58.938Z,25.70
2023-05-19T12:35:33.544Z,25.30
2023-05-19T12:38:05.198Z,25.30
2023-05-19T12:40:37.911Z,24.60
2023-05-19T12:43:29.474Z,24.20
2023-05-19T12:45:56.532Z,23.20
2023-05-19T12:48:23.892Z,23.00
2023-05-19T12:50:54.280Z,22.90
2023-05-19T12:53:21.185Z,22.40
2023-05-19T12:55:47.940Z,21.80
2023-05-19T12:58:16.187Z,21.40
2023-05-19T13:00:45.257Z,20.90
2023-05-19T13:03:20.322Z,20.60
2023-05-19T13:05:49.285Z,20.90
2023-05-19T13:08:18.678Z,20.90
2023-05-19T13:10:47.382Z,20.70
2023-05-19T13:13:14.498Z,20.80
2023-05-19T13:15:46.689Z,20.90
2023-05-19T13:18:14.677Z,21.00
2023-05-19T13:20:42.836Z,20.90
2023-05-19T13:23:14.374Z,21.20
2023-05-19T13:25:41.665Z,20.90
2023-05-19T13:28:09.530Z,20.80
2023-05-19T13:30:43.388Z,20.80
2023-05-19T13:33:10.282Z,21.20
2023-05-19T13:35:37.925Z,20.40
2023-05-19T13:38:10.517Z,19.80
2023-05-19T13:40:38.025Z,19.50
2023-05-19T13:43:06.249Z,19.40
2023-05-19T13:45:33.286Z,19.30
2023-05-19T13:48:00.410Z,19.50
2023-05-19T13:50:27.300Z,19.20
2023-05-19T13:52:54.398Z,19.20
2023-05-19T13:55:21.438Z,19.00
2023-05-19T13:57:48.224Z,18.60
2023-05-19T14:00:15.866Z,18.80
2023-05-19T14:02:43.109Z,19.30
2023-05-19T14:05:10.442Z,19.60
2023-05-19T14:07:37.199Z,19.80
2023-05-19T14:10:06.795Z,19.90
2023-05-19T14:12:44.803Z,19.40
2023-05-19T14:15:21.949Z,19.00
2023-05-19T14:18:06.843Z,18.40
2023-05-19T14:20:34.784Z,18.10
2023-05-19T14:23:02.121Z,18.10
2023-05-19T14:25:34.101Z,18.10
2023-05-19T14:28:01.067Z,17.90
2023-05-19T14:30:27.867Z,17.80
2023-05-19T14:32:54.681Z,17.90
2023-05-19T14:35:22.109Z,17.90
2023-05-19T14:37:48.882Z,17.80
2023-05-19T14:40:15.825Z,17.50
2023-05-19T14:42:42.844Z,17.30
2023-05-19T14:45:10.173Z,17.50
2023-05-19T14:47:36.881Z,17.60
2023-05-19T14:50:04.052Z,17.50
2023-05-19T14:52:30.760Z,17.60
2023-05-19T14:54:57.572Z,17.70
2023-05-19T14:57:24.301Z,17.80
2023-05-19T14:59:51.167Z,17.70
2023-05-19T15:02:17.932Z,17.40
2023-05-19T15:04:45.409Z,17.30
2023-05-19T15:07:12.182Z,17.30
2023-05-19T15:09:38.924Z,17.30
2023-05-19T15:12:06.048Z,17.20
2023-05-19T15:14:32.999Z,17.30
2023-05-19T15:16:59.919Z,17.40
2023-05-19T15:19:27.293Z,17.60
2023-05-19T15:21:54.485Z,17.40
2023-05-19T15:24:21.580Z,17.30
2023-05-19T15:26:48.477Z,17.40
2023-05-19T15:29:15.540Z,17.30
2023-05-19T15:31:42.633Z,17.10
2023-05-19T15:34:09.515Z,16.90
2023-05-19T15:36:36.326Z,16.80
2023-05-19T15:39:04.064Z,16.90
2023-05-19T15:41:30.916Z,16.80
2023-05-19T15:44:00.243Z,16.70
2023-05-19T15:46:27.438Z,16.50
2023-05-19T15:48:54.497Z,16.40
2023-05-19T15:51:21.585Z,16.40
2023-05-19T15:53:48.929Z,16.40
2023-05-19T15:56:16.076Z,16.40
2023-05-19T15:58:43.837Z,16.50
2023-05-19T16:01:10.816Z,16.50
2023-05-19T16:03:37.835Z,16.60
2023-05-19T16:06:04.857Z,16.60
2023-05-19T16:08:31.608Z,16.60
2023-05-19T16:10:58.684Z,16.50
2023-05-19T16:13:25.483Z,16.40
2023-05-19T16:15:52.988Z,16.40
2023-05-19T16:18:19.845Z,16.20
2023-05-19T16:20:46.865Z,16.10
2023-05-19T16:23:13.563Z,16.00
2023-05-19T16:25:41.482Z,15.90
2023-05-19T16:28:08.916Z,15.90
2023-05-19T16:30:35.903Z,16.00
2023-05-19T16:33:02.940Z,16.20
2023-05-19T16:35:29.991Z,16.30
2023-05-19T16:37:56.835Z,16.20
2023-05-19T16:40:23.975Z,16.00
2023-05-19T16:42:53.525Z,16.00
2023-05-19T16:45:20.521Z,15.90
2023-05-19T16:47:47.254Z,15.90
2023-05-19T16:50:14.412Z,15.90
2023-05-19T16:52:41.268Z,15.90
2023-05-19T16:55:08.460Z,15.90
2023-05-19T16:57:35.536Z,15.90
2023-05-19T17:00:03.585Z,15.80
2023-05-19T17:02:32.456Z,15.70
2023-05-19T17:04:59.566Z,15.70
2023-05-19T17:07:29.052Z,15.70
2023-05-19T17:09:56.023Z,15.80
2023-05-19T17:12:23.174Z,15.80
2023-05-19T17:14:52.313Z,15.80
2023-05-19T17:17:19.180Z,15.80
2023-05-19T17:19:46.896Z,15.70
2023-05-19T17:22:13.760Z,15.60
2023-05-19T17:24:40.566Z,15.60
2023-05-19T17:27:12.328Z,15.50
2023-05-19T17:29:39.277Z,15.50
2023-05-19T17:32:06.889Z,15.40
2023-05-19T17:34:34.026Z,15.30
2023-05-19T17:37:01.340Z,15.30
2023-05-19T17:39:28.082Z,15.20
2023-05-19T17:41:54.827Z,15.20
2023-05-19T17:44:21.585Z,15.10
2023-05-19T17:46:48.507Z,15.00
2023-05-19T17:49:15.517Z,15.00
2023-05-19T17:51:42.546Z,15.00
2023-05-19T17:54:09.663Z,14.90
2023-05-19T17:56:42.448Z,14.90
2023-05-19T17:59:09.824Z,14.80
2023-05-19T18:01:37.040Z,14.80
2023-05-19T18:04:04.431Z,14.70
2023-05-19T18:06:32.207Z,14.70
2023-05-19T18:09:01.353Z,14.70
2023-05-19T18:11:28.690Z,14.60
2023-05-19T18:13:55.481Z,14.60
2023-05-19T18:16:22.592Z,14.50
2023-05-19T18:18:50.575Z,14.50
2023-05-19T18:21:18.289Z,14.40
2023-05-19T18:23:46.273Z,14.30
2023-05-19T18:26:13.786Z,14.30
2023-05-19T18:28:41.938Z,14.30
2023-05-19T18:31:15.645Z,14.20
2023-05-19T18:33:43.302Z,14.20
2023-05-19T18:36:10.147Z,14.10
2023-05-19T18:38:36.884Z,14.10
2023-05-19T18:41:06.165Z,14.10
2023-05-19T18:43:33.235Z,14.00
2023-05-19T18:46:00.163Z,14.00
2023-05-19T18:48:27.433Z,13.90
2023-05-19T18:50:54.398Z,13.80
2023-05-19T18:53:22.704Z,13.80
2023-05-19T18:55:49.807Z,13.70
2023-05-19T18:58:18.208Z,13.70
2023-05-19T19:00:45.011Z,13.60
2023-05-19T19:03:12.253Z,13.60
2023-05-19T19:05:39.640Z,13.50
2023-05-19T19:08:06.455Z,13.50
2023-05-19T19:10:34.898Z,13.50
2023-05-19T19:13:01.875Z,13.50
2023-05-19T19:15:28.974Z,13.50
2023-05-19T19:17:56.060Z,13.50
2023-05-19T19:20:22.956Z,13.50
2023-05-19T19:22:50.500Z,13.50
2023-05-19T19:25:17.308Z,13.50
2023-05-19T19:27:44.095Z,13.40
2023-05-19T19:30:11.050Z,13.40
2023-05-19T19:32:37.865Z,13.40
2023-05-19T19:35:05.050Z,13.40
2023-05-19T19:37:32.050Z,13.30
2023-05-19T19:39:58.811Z,13.30
2023-05-19T19:42:26.006Z,13.30
2023-05-19T19:44:56.105Z,13.20
2023-05-19T19:47:23.044Z,13.30
2023-05-19T19:49:49.812Z,13.20
2023-05-19T19:52:17.539Z,13.20
2023-05-19T19:54:44.316Z,13.10
2023-05-19T19:57:11.199Z,13.10
2023-05-19T19:59:38.217Z,13.10
2023-05-19T20:02:05.138Z,13.10
2023-05-19T20:04:32.605Z,13.10
2023-05-19T20:06:59.426Z,13.00
2023-05-19T20:09:26.195Z,13.00
2023-05-19T20:11:53.182Z,13.00
2023-05-19T20:14:19.932Z,12.90
2023-05-19T20:16:47.045Z,13.00
2023-05-19T20:19:14.198Z,12.90
2023-05-19T20:21:41.034Z,12.90
2023-05-19T20:24:08.123Z,12.90
2023-05-19T20:26:34.883Z,12.90
2023-05-19T20:29:01.905Z,12.90
2023-05-19T20:31:28.646Z,12.80
2023-05-19T20:33:55.463Z,12.80
2023-05-19T20:36:22.509Z,12.80
2023-05-19T20:38:49.241Z,12.80
2023-05-19T20:41:16.347Z,12.80
2023-05-19T20:43:43.907Z,12.80
2023-05-19T20:46:11.185Z,12.80
2023-05-19T20:48:38.376Z,12.70
2023-05-19T20:51:05.725Z,12.70
2023-05-19T20:53:32.477Z,12.70
2023-05-19T20:55:59.265Z,12.60
2023-05-19T20:58:30.449Z,12.60
2023-05-19T21:00:58.236Z,12.60
2023-05-19T21:03:26.758Z,12.60
2023-05-19T21:05:54.197Z,12.60
2023-05-19T21:08:21.338Z,12.60
2023-05-19T21:10:48.475Z,12.50
2023-05-19T21:13:15.715Z,12.50
2023-05-19T21:15:42.430Z,12.50
2023-05-19T21:18:11.433Z,12.50
2023-05-19T21:20:38.805Z,12.40
2023-05-19T21:23:06.045Z,12.40
2023-05-19T21:25:32.885Z,12.40
2023-05-19T21:27:59.984Z,12.50
2023-05-19T21:30:26.834Z,12.40
2023-05-19T21:32:53.726Z,12.40
2023-05-19T21:35:20.702Z,12.40
2023-05-19T21:37:47.813Z,12.40
2023-05-19T21:40:14.498Z,12.50
2023-05-19T21:42:41.634Z,12.40
2023-05-19T21:45:09.094Z,12.40
2023-05-19T21:47:36.026Z,12.40
2023-05-19T21:50:02.886Z,12.40
2023-05-19T21:52:30.256Z,12.40
2023-05-19T21:54:57.971Z,12.40
2023-05-19T21:57:24.727Z,12.40
2023-05-19T21:59:51.747Z,12.30
2023-05-19T22:02:18.758Z,12.30
2023-05-19T22:04:46.011Z,12.30
2023-05-19T22:07:12.812Z,12.20
2023-05-19T22:09:39.609Z,12.20
2023-05-19T22:12:07.377Z,12.20
2023-05-19T22:14:34.394Z,12.10
2023-05-19T22:17:01.472Z,12.10
2023-05-19T22:19:28.272Z,12.10
2023-05-19T22:22:01.854Z,12.10
2023-05-19T22:24:36.906Z,12.10
2023-05-19T22:27:04.127Z,12.00
2023-05-19T22:29:30.938Z,12.10
2023-05-19T22:31:57.952Z,12.10
2023-05-19T22:34:24.791Z,12.10
2023-05-19T22:36:51.539Z,12.10
2023-05-19T22:39:18.535Z,12.20
2023-05-19T22:41:45.559Z,12.10
2023-05-19T22:44:16.072Z,12.10
2023-05-19T22:46:44.542Z,12.10
2023-05-19T22:49:11.284Z,12.10
2023-05-19T22:51:39.598Z,12.10
2023-05-19T22:54:06.994Z,12.10
2023-05-19T22:56:33.954Z,12.10
2023-05-19T22:59:01.005Z,12.10
2023-05-19T23:01:27.817Z,12.10
2023-05-19T23:03:54.690Z,12.10
2023-05-19T23:06:22.471Z,12.10
2023-05-19T23:09:40.279Z,12.10
2023-05-19T23:12:07.431Z,12.10
2023-05-19T23:14:34.431Z,12.10
2023-05-19T23:17:01.499Z,12.10
2023-05-19T23:19:29.231Z,12.10
2023-05-19T23:21:56.127Z,12.00
2023-05-19T23:24:23.104Z,12.00
2023-05-19T23:26:49.911Z,12.00
2023-05-19T23:29:16.917Z,12.00
2023-05-19T23:31:44.785Z,12.00
2023-05-19T23:34:11.923Z,12.00
2023-05-19T23:36:39.012Z,11.90
2023-05-19T23:39:06.295Z,11.90
2023-05-19T23:41:33.065Z,11.90
2023-05-19T23:43:59.816Z,11.80
2023-05-19T23:46:27.071Z,11.80
2023-05-19T23:48:53.883Z,11.90
2023-05-19T23:51:20.828Z,11.80
2023-05-19T23:53:47.844Z,11.90
2023-05-19T23:56:14.664Z,11.80
2023-05-19T23:58:41.754Z,11.80
